Time;durP1;ratioP1;P1;durP2;ratioP2;P2;SDS_P1;SDS_P2;PMS_P1;PMS_P2;Temp;Humidity;BMP_temperature;BMP_pressure;BME280_temperature;BME280_humidity;BME280_pressure;Samples;Min_cycle;Max_cycle;Signal;HPM_P1;HPM_P2
2023/11/15 00:01:57;;;;;;;13.77;7.07;;;;;;;;;;5112206;28;20193;-76
2023/11/15 00:04:23;;;;;;;19.90;6.83;;;;;;;;;;5106940;28;20534;-77
2023/11/15 00:06:49;;;;;;;9.50;6.20;;;;;;;;;;5117852;28;20458;-78
2023/11/15 00:09:16;;;;;;;10.60;5.97;;;;;;;;;;5119715;28;20473;-78
2023/11/15 00:11:42;;;;;;;18.83;6.80;;;;;;;;;;5126228;28;20930;-78
2023/11/15 00:14:09;;;;;;;12.00;8.20;;;;;;;;;;5116679;28;20466;-78
2023/11/15 00:16:35;;;;;;;11.10;6.67;;;;;;;;;;5124508;27;20531;-75
2023/11/15 00:19:06;;;;;;;13.77;6.90;;;;;;;;;;5111074;27;20491;-76
2023/11/15 00:21:34;;;;;;;9.33;5.87;;;;;;;;;;5115383;27;20476;-76
2023/11/15 00:24:00;;;;;;;13.03;6.40;;;;;;;;;;5109558;28;20450;-73
2023/11/15 00:26:29;;;;;;;17.43;7.50;;;;;;;;;;5121263;27;20497;-78
2023/11/15 00:28:55;;;;;;;10.77;6.17;;;;;;;;;;5129931;27;20504;-74
2023/11/15 00:31:22;;;;;;;13.50;6.20;;;;;;;;;;5118439;27;20497;-71
2023/11/15 00:33:48;;;;;;;12.20;5.43;;;;;;;;;;5113609;27;20451;-79
2023/11/15 00:36:19;;;;;;;8.03;6.63;;;;;;;;;;5109440;27;20464;-76
2023/11/15 00:38:45;;;;;;;7.60;5.07;;;;;;;;;;5119424;27;20489;-77
2023/11/15 00:41:12;;;;;;;9.63;4.53;;;;;;;;;;5127157;27;20567;-78
2023/11/15 00:43:38;;;;;;;9.57;5.30;;;;;;;;;;5116797;27;20556;-75
2023/11/15 00:46:05;;;;;;;9.90;5.37;;;;;;;;;;5117023;27;20511;-77
2023/11/15 00:48:32;;;;;;;11.77;5.67;;;;;;;;;;5122442;27;20488;-76
2023/11/15 00:50:58;;;;;;;14.00;4.80;;;;;;;;;;5125045;27;20474;-78
2023/11/15 00:53:26;;;;;;;9.47;4.93;;;;;;;;;;5112636;27;20430;-78
2023/11/15 00:55:52;;;;;;;7.63;4.20;;;;;;;;;;5116378;27;20522;-78
2023/11/15 00:58:19;;;;;;;12.80;4.80;;;;;;;;;;5117618;27;20477;-76
2023/11/15 01:00:47;;;;;;;9.90;4.27;;;;;;;;;;5128776;27;20489;-79
2023/11/15 01:03:15;;;;;;;7.53;4.37;;;;;;;;;;5119072;27;20503;-79
2023/11/15 01:05:42;;;;;;;13.07;4.43;;;;;;;;;;5118265;28;20450;-79
2023/11/15 01:08:08;;;;;;;9.07;3.33;;;;;;;;;;5117774;28;20498;-78
2023/11/15 01:10:36;;;;;;;10.60;3.83;;;;;;;;;;5120122;27;20772;-79
2023/11/15 01:13:03;;;;;;;10.17;3.03;;;;;;;;;;5110585;27;20476;-75
2023/11/15 01:15:29;;;;;;;7.30;4.00;;;;;;;;;;5109965;27;20989;-76
2023/11/15 01:17:57;;;;;;;5.77;3.43;;;;;;;;;;5123997;27;20465;-75
2023/11/15 01:20:25;;;;;;;4.70;3.10;;;;;;;;;;5117681;27;20465;-78
2023/11/15 01:22:51;;;;;;;4.00;3.10;;;;;;;;;;5105973;28;20451;-78
2023/11/15 01:25:20;;;;;;;5.53;3.33;;;;;;;;;;5120276;27;20495;-75
2023/11/15 01:27:48;;;;;;;6.23;3.70;;;;;;;;;;5123943;27;20445;-78
2023/11/15 01:30:15;;;;;;;7.27;2.90;;;;;;;;;;5121047;27;20453;-78
2023/11/15 01:32:42;;;;;;;7.20;3.30;;;;;;;;;;5113787;27;20477;-76
2023/11/15 01:35:09;;;;;;;4.00;2.50;;;;;;;;;;5113143;27;20478;-75
2023/11/15 01:37:35;;;;;;;6.50;3.27;;;;;;;;;;5112930;27;20485;-78
2023/11/15 01:40:06;;;;;;;4.60;2.70;;;;;;;;;;5109775;27;20507;-77
2023/11/15 01:42:33;;;;;;;4.93;2.53;;;;;;;;;;5124177;27;20476;-76
2023/11/15 01:45:02;;;;;;;4.70;2.37;;;;;;;;;;5111565;27;20492;-75
2023/11/15 01:47:30;;;;;;;6.10;2.70;;;;;;;;;;5117377;27;20525;-76
2023/11/15 01:49:56;;;;;;;4.00;1.87;;;;;;;;;;5110384;27;20482;-78
2023/11/15 01:52:24;;;;;;;5.37;2.23;;;;;;;;;;5117314;27;20488;-76
2023/11/15 01:54:51;;;;;;;3.87;2.00;;;;;;;;;;5109261;27;20454;-76
2023/11/15 01:57:18;;;;;;;5.20;2.03;;;;;;;;;;5109355;27;20482;-76
2023/11/15 01:59:45;;;;;;;3.20;1.77;;;;;;;;;;5111500;27;20562;-77
2023/11/15 02:02:12;;;;;;;6.03;1.80;;;;;;;;;;5106873;27;20443;-76
2023/11/15 02:04:39;;;;;;;4.47;1.67;;;;;;;;;;5114026;27;20478;-77
2023/11/15 02:07:07;;;;;;;5.23;2.20;;;;;;;;;;5113782;27;20554;-75
2023/11/15 02:09:34;;;;;;;3.60;1.90;;;;;;;;;;5109254;27;20546;-76
2023/11/15 02:12:00;;;;;;;5.93;2.57;;;;;;;;;;5108090;27;20531;-75
2023/11/15 02:14:26;;;;;;;3.80;2.13;;;;;;;;;;5115087;27;20481;-78
2023/11/15 02:16:53;;;;;;;5.10;2.00;;;;;;;;;;5112579;27;20461;-78
2023/11/15 02:19:21;;;;;;;6.43;1.80;;;;;;;;;;5117953;27;20491;-75
2023/11/15 02:21:47;;;;;;;3.67;2.57;;;;;;;;;;5116185;27;20475;-77
2023/11/15 02:24:15;;;;;;;3.73;2.03;;;;;;;;;;5123033;27;20505;-76
2023/11/15 02:26:42;;;;;;;4.30;2.43;;;;;;;;;;5112145;27;20894;-73
2023/11/15 02:29:09;;;;;;;4.50;2.20;;;;;;;;;;5122896;27;20454;-75
2023/11/15 02:31:35;;;;;;;4.07;2.50;;;;;;;;;;5121957;27;20582;-76
2023/11/15 02:34:01;;;;;;;5.43;2.53;;;;;;;;;;5114577;27;20491;-77
2023/11/15 02:36:28;;;;;;;4.17;2.00;;;;;;;;;;5105804;28;20454;-73
2023/11/15 02:38:55;;;;;;;5.13;2.40;;;;;;;;;;5122343;27;21070;-76
2023/11/15 02:41:23;;;;;;;3.03;1.90;;;;;;;;;;5108984;27;20478;-75
2023/11/15 02:43:49;;;;;;;4.03;2.20;;;;;;;;;;5110679;27;20496;-75
2023/11/15 02:46:18;;;;;;;6.63;2.23;;;;;;;;;;5121209;27;20456;-75
2023/11/15 02:48:43;;;;;;;5.50;2.27;;;;;;;;;;5117102;27;20490;-75
2023/11/15 02:51:10;;;;;;;5.07;2.40;;;;;;;;;;5113699;28;20972;-77
2023/11/15 02:53:37;;;;;;;5.40;2.77;;;;;;;;;;5107314;27;20196;-75
2023/11/15 02:56:04;;;;;;;7.63;2.57;;;;;;;;;;5121199;27;20522;-76
2023/11/15 02:58:32;;;;;;;7.50;2.60;;;;;;;;;;5118184;27;20457;-77
2023/11/15 03:00:58;;;;;;;7.13;2.90;;;;;;;;;;5119259;28;20470;-77
2023/11/15 03:03:25;;;;;;;7.30;2.70;;;;;;;;;;5119767;28;20462;-78
2023/11/15 03:05:51;;;;;;;4.77;2.87;;;;;;;;;;5111020;28;20475;-78
2023/11/15 03:08:17;;;;;;;6.40;2.47;;;;;;;;;;5113600;28;20482;-79
2023/11/15 03:10:44;;;;;;;9.90;2.60;;;;;;;;;;5113064;28;20530;-79
2023/11/15 03:13:10;;;;;;;5.10;3.40;;;;;;;;;;5112827;28;20516;-79
2023/11/15 03:15:38;;;;;;;4.93;3.00;;;;;;;;;;5118604;28;20467;-77
2023/11/15 03:18:05;;;;;;;6.20;3.07;;;;;;;;;;5117682;28;20448;-78
2023/11/15 03:20:31;;;;;;;7.00;2.73;;;;;;;;;;5113396;28;20485;-77
2023/11/15 03:22:58;;;;;;;7.83;3.20;;;;;;;;;;5111489;28;20447;-76
2023/11/15 03:25:24;;;;;;;4.10;3.00;;;;;;;;;;5114045;28;20481;-76
2023/11/15 03:27:52;;;;;;;5.87;3.00;;;;;;;;;;5113171;28;20466;-74
2023/11/15 03:30:19;;;;;;;6.37;2.83;;;;;;;;;;5114472;28;21107;-77
2023/11/15 03:32:47;;;;;;;8.73;2.80;;;;;;;;;;5118709;28;20491;-77
2023/11/15 03:35:13;;;;;;;7.57;3.07;;;;;;;;;;5108325;28;20478;-75
2023/11/15 03:37:41;;;;;;;8.87;3.40;;;;;;;;;;5118757;28;20476;-75
2023/11/15 03:40:08;;;;;;;7.53;3.37;;;;;;;;;;5114446;28;20515;-76
2023/11/15 03:42:35;;;;;;;6.57;3.13;;;;;;;;;;5114493;28;20449;-79
2023/11/15 03:45:04;;;;;;;10.33;3.40;;;;;;;;;;5116870;28;20495;-78
2023/11/15 03:47:30;;;;;;;15.17;3.87;;;;;;;;;;5125234;28;20479;-79
2023/11/15 03:49:58;;;;;;;12.17;3.70;;;;;;;;;;5118321;28;20942;-78
2023/11/15 03:52:24;;;;;;;9.03;3.03;;;;;;;;;;5119255;27;20453;-79
2023/11/15 03:54:50;;;;;;;6.33;3.30;;;;;;;;;;5113837;27;21031;-79
2023/11/15 03:57:17;;;;;;;6.43;3.20;;;;;;;;;;5122682;27;20508;-80
2023/11/15 03:59:43;;;;;;;13.80;2.70;;;;;;;;;;5114169;27;20517;-79
2023/11/15 04:02:10;;;;;;;5.77;3.53;;;;;;;;;;5129899;27;20568;-78
2023/11/15 04:04:37;;;;;;;8.53;4.67;;;;;;;;;;5120626;27;20554;-76
2023/11/15 04:07:05;;;;;;;7.67;3.53;;;;;;;;;;5123979;27;20528;-79
2023/11/15 04:09:32;;;;;;;9.53;3.20;;;;;;;;;;5116813;27;20917;-78
2023/11/15 04:11:58;;;;;;;5.07;3.27;;;;;;;;;;5120241;27;20544;-79
2023/11/15 04:14:25;;;;;;;8.27;3.53;;;;;;;;;;5122065;27;20484;-79
2023/11/15 04:16:52;;;;;;;10.60;3.60;;;;;;;;;;5110906;27;20486;-76
2023/11/15 04:19:21;;;;;;;8.30;3.37;;;;;;;;;;5110064;27;20521;-76
2023/11/15 04:21:47;;;;;;;7.70;3.90;;;;;;;;;;5115929;27;20469;-78
2023/11/15 04:24:15;;;;;;;10.40;4.10;;;;;;;;;;5123842;27;20505;-80
2023/11/15 04:26:41;;;;;;;6.13;3.33;;;;;;;;;;5119019;27;20528;-78
2023/11/15 04:29:08;;;;;;;13.13;3.30;;;;;;;;;;5117476;27;20468;-79
2023/11/15 04:31:35;;;;;;;9.27;3.13;;;;;;;;;;5107056;28;21297;-74
2023/11/15 04:34:02;;;;;;;11.60;3.73;;;;;;;;;;5118614;27;20462;-76
2023/11/15 04:36:29;;;;;;;11.83;5.03;;;;;;;;;;5119948;27;20457;-75
2023/11/15 04:38:55;;;;;;;11.63;4.10;;;;;;;;;;5122818;27;20489;-77
2023/11/15 04:41:23;;;;;;;6.07;3.77;;;;;;;;;;5119968;27;20506;-78
2023/11/15 04:43:50;;;;;;;6.47;3.57;;;;;;;;;;5117784;27;20450;-78
2023/11/15 04:46:16;;;;;;;5.20;3.43;;;;;;;;;;5105087;27;20463;-77
2023/11/15 04:48:43;;;;;;;12.50;4.73;;;;;;;;;;5130795;27;20477;-76
2023/11/15 04:51:10;;;;;;;10.63;5.33;;;;;;;;;;5125548;27;20463;-75
2023/11/15 04:53:36;;;;;;;7.57;4.10;;;;;;;;;;5128030;27;20472;-77
2023/11/15 04:56:03;;;;;;;15.83;5.47;;;;;;;;;;5126339;27;20480;-77
2023/11/15 04:58:31;;;;;;;7.00;4.00;;;;;;;;;;5123463;27;20485;-77
2023/11/15 05:00:57;;;;;;;9.07;4.27;;;;;;;;;;5123797;27;20998;-77
2023/11/15 05:03:24;;;;;;;8.90;3.73;;;;;;;;;;5118148;27;20470;-77
2023/11/15 05:05:50;;;;;;;7.70;3.10;;;;;;;;;;5120404;27;20484;-76
2023/11/15 05:08:16;;;;;;;21.03;4.60;;;;;;;;;;5118804;27;20461;-77
2023/11/15 05:10:43;;;;;;;11.30;3.90;;;;;;;;;;5118285;27;20518;-77
2023/11/15 05:13:09;;;;;;;10.87;3.73;;;;;;;;;;5114620;28;20455;-76
2023/11/15 05:15:37;;;;;;;11.43;3.33;;;;;;;;;;5097211;28;20501;-73
2023/11/15 05:18:04;;;;;;;8.70;3.70;;;;;;;;;;5115055;27;20466;-74
2023/11/15 05:20:31;;;;;;;7.97;4.03;;;;;;;;;;5111787;27;20575;-75
2023/11/15 05:22:57;;;;;;;7.67;3.80;;;;;;;;;;5111070;28;20447;-74
2023/11/15 05:25:24;;;;;;;6.23;3.73;;;;;;;;;;5106839;28;20583;-76
2023/11/15 05:27:51;;;;;;;7.47;4.27;;;;;;;;;;5109544;27;21246;-77
2023/11/15 05:30:17;;;;;;;9.00;3.40;;;;;;;;;;5109641;28;20450;-77
2023/11/15 05:32:45;;;;;;;8.60;3.83;;;;;;;;;;5107801;28;20553;-75
2023/11/15 05:35:12;;;;;;;10.07;3.93;;;;;;;;;;5113983;27;20483;-77
2023/11/15 05:37:38;;;;;;;5.20;2.93;;;;;;;;;;5110357;27;20466;-76
2023/11/15 05:40:06;;;;;;;8.10;3.00;;;;;;;;;;5118550;28;20489;-73
2023/11/15 05:42:32;;;;;;;6.93;3.10;;;;;;;;;;5123907;27;20446;-77
2023/11/15 05:44:59;;;;;;;9.07;3.30;;;;;;;;;;5114943;27;20530;-77
2023/11/15 05:47:26;;;;;;;10.20;3.50;;;;;;;;;;5103174;28;20471;-75
2023/11/15 05:49:54;;;;;;;10.83;2.87;;;;;;;;;;5113647;28;20461;-77
2023/11/15 05:52:21;;;;;;;4.17;2.87;;;;;;;;;;5112716;27;20462;-77
2023/11/15 05:54:47;;;;;;;6.17;3.00;;;;;;;;;;5112965;27;21101;-73
2023/11/15 05:57:14;;;;;;;6.73;3.03;;;;;;;;;;5118863;27;20537;-77
2023/11/15 05:59:41;;;;;;;5.40;3.20;;;;;;;;;;5124139;27;20454;-76
2023/11/15 06:02:07;;;;;;;8.60;4.00;;;;;;;;;;5111553;27;21169;-74
2023/11/15 06:04:35;;;;;;;6.03;3.07;;;;;;;;;;5108751;28;20473;-73
2023/11/15 06:07:04;;;;;;;9.67;3.17;;;;;;;;;;5104325;28;20522;-64
2023/11/15 06:09:30;;;;;;;8.17;3.80;;;;;;;;;;5123358;27;20870;-65
2023/11/15 06:11:57;;;;;;;8.47;3.33;;;;;;;;;;5108762;27;20467;-65
2023/11/15 06:14:24;;;;;;;6.20;3.70;;;;;;;;;;5111805;27;20451;-71
2023/11/15 06:16:50;;;;;;;8.17;4.03;;;;;;;;;;5112123;28;20450;-69
2023/11/15 06:19:16;;;;;;;7.27;3.50;;;;;;;;;;5107612;28;21053;-70
2023/11/15 06:21:44;;;;;;;7.60;3.83;;;;;;;;;;5109560;28;20533;-79
2023/11/15 06:24:12;;;;;;;7.87;3.90;;;;;;;;;;5103353;28;20450;-82
2023/11/15 06:26:39;;;;;;;7.03;3.53;;;;;;;;;;5108092;27;20552;-80
2023/11/15 06:29:07;;;;;;;6.70;4.10;;;;;;;;;;5117401;27;21034;-80
2023/11/15 06:31:36;;;;;;;7.00;3.63;;;;;;;;;;5107835;27;20474;-80
2023/11/15 06:34:02;;;;;;;10.30;3.70;;;;;;;;;;5103130;28;20466;-80
2023/11/15 06:36:31;;;;;;;9.43;4.40;;;;;;;;;;5104544;28;20486;-78
2023/11/15 06:38:58;;;;;;;7.33;4.30;;;;;;;;;;5108790;28;20482;-79
2023/11/15 06:41:26;;;;;;;9.17;4.47;;;;;;;;;;5101283;28;20556;-78
2023/11/15 06:43:52;;;;;;;11.27;5.40;;;;;;;;;;5098968;28;20440;-81
2023/11/15 06:46:19;;;;;;;8.47;5.43;;;;;;;;;;5104913;28;20450;-78
2023/11/15 06:48:46;;;;;;;8.30;5.67;;;;;;;;;;5105471;28;20511;-78
2023/11/15 06:51:13;;;;;;;11.80;6.17;;;;;;;;;;5107369;28;20496;-79
2023/11/15 06:53:39;;;;;;;9.70;4.63;;;;;;;;;;5105555;28;20486;-77
2023/11/15 06:56:07;;;;;;;9.43;5.47;;;;;;;;;;5098225;28;20478;-78
2023/11/15 06:58:36;;;;;;;8.23;5.30;;;;;;;;;;5115458;28;20494;-79
2023/11/15 07:01:05;;;;;;;10.73;6.10;;;;;;;;;;5101145;28;20478;-80
2023/11/15 07:03:31;;;;;;;10.80;6.50;;;;;;;;;;5120321;28;20453;-72
2023/11/15 07:05:58;;;;;;;9.53;5.40;;;;;;;;;;5114757;28;20502;-72
2023/11/15 07:08:24;;;;;;;10.53;6.10;;;;;;;;;;5116195;28;20454;-72
2023/11/15 07:10:52;;;;;;;9.13;5.47;;;;;;;;;;5095556;28;20471;-73
2023/11/15 07:13:20;;;;;;;12.07;6.20;;;;;;;;;;5115598;28;21021;-72
2023/11/15 07:15:49;;;;;;;8.37;6.50;;;;;;;;;;5113505;28;20506;-73
2023/11/15 07:18:15;;;;;;;13.33;5.50;;;;;;;;;;5097099;28;20525;-76
2023/11/15 07:20:44;;;;;;;9.50;6.23;;;;;;;;;;5105425;28;20481;-79
2023/11/15 07:23:11;;;;;;;9.00;5.13;;;;;;;;;;5107807;28;20454;-79
2023/11/15 07:25:38;;;;;;;6.03;4.57;;;;;;;;;;5117841;27;20884;-79
2023/11/15 07:28:04;;;;;;;6.83;4.27;;;;;;;;;;5111287;27;21074;-79
2023/11/15 07:30:31;;;;;;;4.20;3.80;;;;;;;;;;5114938;27;20494;-79
2023/11/15 07:33:00;;;;;;;9.20;5.00;;;;;;;;;;5113652;27;20485;-79
2023/11/15 07:35:26;;;;;;;5.20;4.10;;;;;;;;;;5120691;28;20486;-79
2023/11/15 07:37:53;;;;;;;4.97;4.00;;;;;;;;;;5124094;27;20454;-79
2023/11/15 07:40:22;;;;;;;11.33;5.57;;;;;;;;;;5115532;28;20762;-77
2023/11/15 07:42:48;;;;;;;9.73;4.90;;;;;;;;;;5117457;27;20446;-80
2023/11/15 07:45:17;;;;;;;4.97;4.37;;;;;;;;;;5126284;27;20526;-79
2023/11/15 07:47:43;;;;;;;8.27;5.73;;;;;;;;;;5119273;27;20468;-79
2023/11/15 07:50:12;;;;;;;6.17;4.40;;;;;;;;;;5110780;27;20477;-79
2023/11/15 07:52:39;;;;;;;9.83;4.80;;;;;;;;;;5116064;28;20521;-79
2023/11/15 07:55:06;;;;;;;4.23;2.83;;;;;;;;;;5117149;27;20538;-79
2023/11/15 07:57:33;;;;;;;4.03;3.20;;;;;;;;;;5125839;27;20457;-80
2023/11/15 07:59:59;;;;;;;8.40;3.50;;;;;;;;;;5115527;27;20449;-80
2023/11/15 08:02:26;;;;;;;6.40;3.73;;;;;;;;;;5120511;28;20477;-79
2023/11/15 08:04:52;;;;;;;7.23;3.60;;;;;;;;;;5118846;27;21042;-80
2023/11/15 08:07:21;;;;;;;3.60;2.57;;;;;;;;;;5113024;27;20463;-78
2023/11/15 08:09:47;;;;;;;4.07;2.90;;;;;;;;;;5115290;28;20461;-80
2023/11/15 08:12:14;;;;;;;3.40;2.93;;;;;;;;;;5115805;28;20478;-79
2023/11/15 08:14:41;;;;;;;4.77;2.60;;;;;;;;;;5115292;28;20449;-78
2023/11/15 08:17:07;;;;;;;4.03;2.10;;;;;;;;;;5120273;27;20482;-80
2023/11/15 08:19:33;;;;;;;4.10;2.37;;;;;;;;;;5120104;28;20713;-80
2023/11/15 08:22:02;;;;;;;2.63;2.10;;;;;;;;;;5115511;28;20524;-80
2023/11/15 08:24:30;;;;;;;6.50;2.90;;;;;;;;;;5111642;28;20459;-79
2023/11/15 08:26:57;;;;;;;4.17;2.40;;;;;;;;;;5110752;27;20459;-80
2023/11/15 08:29:24;;;;;;;2.70;2.10;;;;;;;;;;5106112;28;20463;-79
2023/11/15 08:31:50;;;;;;;6.30;2.53;;;;;;;;;;5117441;28;20503;-77
2023/11/15 08:34:17;;;;;;;4.00;2.10;;;;;;;;;;5117716;27;20450;-79
2023/11/15 08:36:44;;;;;;;2.37;2.17;;;;;;;;;;5108307;27;21052;-79
2023/11/15 08:39:12;;;;;;;2.40;1.70;;;;;;;;;;5114729;28;20450;-80
2023/11/15 08:41:41;;;;;;;5.20;1.90;;;;;;;;;;5117033;28;20489;-79
2023/11/15 08:44:09;;;;;;;2.23;1.43;;;;;;;;;;5106442;27;20455;-75
2023/11/15 08:46:35;;;;;;;5.03;1.63;;;;;;;;;;5118319;27;20787;-77
2023/11/15 08:49:04;;;;;;;3.93;2.10;;;;;;;;;;5107257;28;20455;-77
2023/11/15 08:51:31;;;;;;;3.17;1.40;;;;;;;;;;5107405;27;20459;-74
2023/11/15 08:53:58;;;;;;;2.83;2.00;;;;;;;;;;5114532;28;20778;-75
2023/11/15 08:56:25;;;;;;;3.47;1.90;;;;;;;;;;5118110;27;20458;-73
2023/11/15 08:58:54;;;;;;;2.77;2.50;;;;;;;;;;5108894;27;20466;-75
2023/11/15 09:01:24;;;;;;;4.70;2.40;;;;;;;;;;5113542;28;21288;-76
2023/11/15 09:03:50;;;;;;;3.77;2.17;;;;;;;;;;5099797;28;20447;-76
2023/11/15 09:06:18;;;;;;;4.67;2.83;;;;;;;;;;5111095;27;20983;-77
2023/11/15 09:08:46;;;;;;;2.80;1.70;;;;;;;;;;5119109;27;20461;-77
2023/11/15 09:11:12;;;;;;;2.20;1.33;;;;;;;;;;5108087;28;20450;-78
2023/11/15 09:13:39;;;;;;;2.90;2.67;;;;;;;;;;5103459;28;20459;-76
2023/11/15 09:16:08;;;;;;;3.20;1.90;;;;;;;;;;5121502;27;20463;-78
2023/11/15 09:18:35;;;;;;;4.53;2.20;;;;;;;;;;5119069;27;20445;-72
2023/11/15 09:21:03;;;;;;;3.17;1.77;;;;;;;;;;5111335;27;20487;-80
2023/11/15 09:23:29;;;;;;;4.13;2.50;;;;;;;;;;5122068;27;20454;-77
2023/11/15 09:25:58;;;;;;;3.87;1.83;;;;;;;;;;5115581;27;20970;-79
2023/11/15 09:28:25;;;;;;;1.77;1.67;;;;;;;;;;5119320;28;20470;-75
2023/11/15 09:30:52;;;;;;;4.00;1.97;;;;;;;;;;5121709;27;20458;-72
2023/11/15 09:33:20;;;;;;;3.70;2.47;;;;;;;;;;5112637;27;20478;-74
2023/11/15 09:35:47;;;;;;;2.30;1.50;;;;;;;;;;5101523;27;20537;-68
2023/11/15 09:38:14;;;;;;;1.70;1.60;;;;;;;;;;5118023;27;20446;-69
2023/11/15 09:40:40;;;;;;;1.87;1.63;;;;;;;;;;5129101;27;20533;-67
2023/11/15 09:43:07;;;;;;;1.83;1.57;;;;;;;;;;5108017;27;20545;-67
2023/11/15 09:45:36;;;;;;;2.40;1.53;;;;;;;;;;5110252;28;20481;-68
2023/11/15 09:48:04;;;;;;;2.00;1.30;;;;;;;;;;5117920;27;20450;-70
2023/11/15 09:50:33;;;;;;;1.50;1.40;;;;;;;;;;5119074;27;20467;-66
2023/11/15 09:53:03;;;;;;;1.53;1.43;;;;;;;;;;5109363;28;20983;-67
2023/11/15 09:55:29;;;;;;;1.57;1.43;;;;;;;;;;5095458;27;21203;-70
2023/11/15 09:57:56;;;;;;;1.50;1.40;;;;;;;;;;5106126;27;20450;-67
2023/11/15 10:00:23;;;;;;;1.93;1.83;;;;;;;;;;5110184;28;20487;-71
2023/11/15 10:02:50;;;;;;;3.43;1.80;;;;;;;;;;5115772;27;20505;-73
2023/11/15 10:05:18;;;;;;;3.03;1.90;;;;;;;;;;5111928;27;21008;-71
2023/11/15 10:07:54;;;;;;;1.77;1.67;;;;;;;;;;5114158;27;20458;-71
2023/11/15 10:10:21;;;;;;;2.07;1.90;;;;;;;;;;5110430;27;20455;-71
2023/11/15 10:12:50;;;;;;;1.83;1.70;;;;;;;;;;5113543;27;21378;-73
2023/11/15 10:15:18;;;;;;;1.97;1.50;;;;;;;;;;5112669;28;20454;-73
2023/11/15 10:17:46;;;;;;;1.40;1.30;;;;;;;;;;5105483;28;20466;-70
2023/11/15 10:20:20;;;;;;;1.70;1.60;;;;;;;;;;5112110;28;20443;-69
2023/11/15 10:22:47;;;;;;;2.50;1.83;;;;;;;;;;5119231;27;20485;-71
2023/11/15 10:25:15;;;;;;;2.47;1.80;;;;;;;;;;5111247;28;20442;-69
2023/11/15 10:27:42;;;;;;;1.60;1.50;;;;;;;;;;5106567;28;20461;-69
2023/11/15 10:30:12;;;;;;;2.17;1.60;;;;;;;;;;5115552;27;20480;-70
2023/11/15 10:32:40;;;;;;;3.90;1.50;;;;;;;;;;5109633;28;20818;-72
2023/11/15 10:35:08;;;;;;;2.50;1.10;;;;;;;;;;5106345;27;20449;-68
2023/11/15 10:37:34;;;;;;;1.80;1.27;;;;;;;;;;5108858;28;20937;-69
2023/11/15 10:40:06;;;;;;;2.53;1.43;;;;;;;;;;5118234;28;20517;-70
2023/11/15 10:42:34;;;;;;;3.53;1.20;;;;;;;;;;5109466;28;20499;-70
2023/11/15 10:45:08;;;;;;;2.40;1.43;;;;;;;;;;5118242;27;20518;-67
2023/11/15 10:47:37;;;;;;;1.20;1.10;;;;;;;;;;5116748;27;20454;-73
2023/11/15 10:50:13;;;;;;;3.40;1.10;;;;;;;;;;5109752;28;20530;-70
2023/11/15 10:52:39;;;;;;;1.33;1.20;;;;;;;;;;5110503;28;20443;-68
2023/11/15 10:55:08;;;;;;;1.40;1.30;;;;;;;;;;5113310;27;20454;-69
2023/11/15 10:57:38;;;;;;;2.40;1.03;;;;;;;;;;5113496;28;20565;-70
2023/11/15 11:00:17;;;;;;;1.97;1.13;;;;;;;;;;5103190;28;20451;-70
2023/11/15 11:02:45;;;;;;;2.30;1.40;;;;;;;;;;5106028;28;20510;-67
2023/11/15 11:05:16;;;;;;;2.00;1.20;;;;;;;;;;5112714;28;20911;-67
2023/11/15 11:07:47;;;;;;;2.10;1.30;;;;;;;;;;5104780;28;20887;-67
2023/11/15 11:10:16;;;;;;;1.77;1.40;;;;;;;;;;5115924;28;20462;-68
2023/11/15 11:12:44;;;;;;;1.17;1.10;;;;;;;;;;5112215;28;21523;-68
2023/11/15 11:15:24;;;;;;;1.83;1.23;;;;;;;;;;5116851;28;20454;-73
2023/11/15 11:18:03;;;;;;;1.33;1.23;;;;;;;;;;5102421;28;20510;-72
2023/11/15 11:20:30;;;;;;;2.43;1.13;;;;;;;;;;5107665;28;20582;-73
2023/11/15 11:23:07;;;;;;;1.57;1.23;;;;;;;;;;5118403;28;20537;-71
2023/11/15 11:25:38;;;;;;;2.90;1.33;;;;;;;;;;5111638;28;20457;-68
2023/11/15 11:28:11;;;;;;;1.63;1.10;;;;;;;;;;5111515;28;20450;-68
2023/11/15 11:30:37;;;;;;;1.63;1.03;;;;;;;;;;5113906;28;20461;-69
2023/11/15 11:33:09;;;;;;;2.90;1.47;;;;;;;;;;5114879;28;20473;-68
2023/11/15 11:35:36;;;;;;;3.83;1.27;;;;;;;;;;5106462;28;20840;-69
2023/11/15 11:38:03;;;;;;;1.70;1.60;;;;;;;;;;5107181;28;20476;-70
2023/11/15 11:40:32;;;;;;;2.13;1.40;;;;;;;;;;5106693;28;20450;-69
2023/11/15 11:43:15;;;;;;;1.33;1.23;;;;;;;;;;5116409;28;20494;-66
2023/11/15 11:45:43;;;;;;;1.30;1.20;;;;;;;;;;5109114;28;20525;-69
2023/11/15 11:48:16;;;;;;;1.30;1.20;;;;;;;;;;5108903;28;20470;-69
2023/11/15 11:50:51;;;;;;;2.13;1.10;;;;;;;;;;5108231;28;20450;-67
2023/11/15 11:53:18;;;;;;;1.53;1.00;;;;;;;;;;5108851;28;20469;-69
2023/11/15 11:55:45;;;;;;;1.20;1.10;;;;;;;;;;5110738;28;21117;-68
2023/11/15 11:58:13;;;;;;;1.20;1.10;;;;;;;;;;5100703;28;20510;-66
2023/11/15 12:00:40;;;;;;;2.57;1.00;;;;;;;;;;5098798;28;20459;-69
2023/11/15 12:03:09;;;;;;;1.13;1.03;;;;;;;;;;5108446;28;21490;-73
2023/11/15 12:05:36;;;;;;;1.97;1.13;;;;;;;;;;5096677;28;20851;-69
2023/11/15 12:08:03;;;;;;;1.70;1.10;;;;;;;;;;5102075;28;20549;-68
2023/11/15 12:10:29;;;;;;;1.10;1.00;;;;;;;;;;5117017;28;20507;-68
2023/11/15 12:12:56;;;;;;;1.60;1.23;;;;;;;;;;5107151;27;20583;-69
2023/11/15 12:15:24;;;;;;;1.93;1.17;;;;;;;;;;5113266;27;20480;-67
2023/11/15 12:17:51;;;;;;;1.63;0.83;;;;;;;;;;5116454;28;20568;-70
2023/11/15 12:20:26;;;;;;;1.13;1.00;;;;;;;;;;5117946;27;20453;-67
2023/11/15 12:23:03;;;;;;;1.33;0.73;;;;;;;;;;5110172;28;20474;-70
2023/11/15 12:25:29;;;;;;;0.70;0.57;;;;;;;;;;5106728;28;20465;-69
2023/11/15 12:28:00;;;;;;;1.10;0.70;;;;;;;;;;5098720;28;20940;-70
2023/11/15 12:30:28;;;;;;;3.10;1.00;;;;;;;;;;5105921;28;20455;-70
2023/11/15 12:32:57;;;;;;;1.00;0.90;;;;;;;;;;5110653;27;20483;-69
2023/11/15 12:35:23;;;;;;;3.13;1.07;;;;;;;;;;5112081;28;20463;-69
2023/11/15 12:37:53;;;;;;;2.77;1.10;;;;;;;;;;5120052;27;20478;-69
2023/11/15 12:40:20;;;;;;;2.90;0.90;;;;;;;;;;5121283;28;20485;-71
2023/11/15 12:42:48;;;;;;;2.70;1.23;;;;;;;;;;5117356;28;20474;-67
2023/11/15 12:45:29;;;;;;;1.87;1.40;;;;;;;;;;5099189;28;20469;-67
2023/11/15 12:48:00;;;;;;;1.40;1.00;;;;;;;;;;5103715;28;20497;-75
2023/11/15 12:50:27;;;;;;;2.50;1.43;;;;;;;;;;5109373;27;20482;-71
2023/11/15 12:52:53;;;;;;;1.83;1.47;;;;;;;;;;5119239;27;20435;-71
2023/11/15 12:55:34;;;;;;;1.83;1.50;;;;;;;;;;5117403;27;20477;-70
2023/11/15 12:58:00;;;;;;;2.20;1.37;;;;;;;;;;5112418;27;21013;-67
2023/11/15 13:00:34;;;;;;;3.27;1.83;;;;;;;;;;5105935;27;20474;-67
2023/11/15 13:03:15;;;;;;;4.50;2.53;;;;;;;;;;5120426;27;20512;-69
2023/11/15 13:05:42;;;;;;;4.50;2.80;;;;;;;;;;5117699;27;20473;-72
2023/11/15 13:08:08;;;;;;;2.80;2.60;;;;;;;;;;5106914;27;20488;-74
2023/11/15 13:10:34;;;;;;;5.60;3.30;;;;;;;;;;5105599;28;20442;-73
2023/11/15 13:13:01;;;;;;;7.20;4.03;;;;;;;;;;5110072;28;20516;-66
2023/11/15 13:15:27;;;;;;;11.23;4.17;;;;;;;;;;5119367;28;20446;-67
2023/11/15 13:17:55;;;;;;;9.10;3.80;;;;;;;;;;5110312;27;21389;-69
2023/11/15 13:20:22;;;;;;;10.73;4.23;;;;;;;;;;5111816;27;20449;-67
2023/11/15 13:22:49;;;;;;;5.97;4.73;;;;;;;;;;5108264;27;20546;-67
2023/11/15 13:25:16;;;;;;;9.70;5.20;;;;;;;;;;5125114;27;20453;-70
2023/11/15 13:27:45;;;;;;;8.23;5.10;;;;;;;;;;5120553;27;20935;-68
2023/11/15 13:30:13;;;;;;;18.63;6.83;;;;;;;;;;5112714;28;20458;-69
2023/11/15 13:32:40;;;;;;;7.50;5.00;;;;;;;;;;5115822;27;20473;-71
2023/11/15 13:35:09;;;;;;;10.20;5.17;;;;;;;;;;5113448;27;21388;-73
2023/11/15 13:37:35;;;;;;;6.43;5.30;;;;;;;;;;5106490;28;20451;-72
2023/11/15 13:40:03;;;;;;;10.53;5.17;;;;;;;;;;5114858;28;20462;-70
2023/11/15 13:42:30;;;;;;;6.23;5.23;;;;;;;;;;5113124;28;20591;-67
2023/11/15 13:44:57;;;;;;;7.43;5.17;;;;;;;;;;5118959;28;20819;-69
2023/11/15 13:47:27;;;;;;;9.77;5.37;;;;;;;;;;5101671;28;20506;-71
2023/11/15 13:49:54;;;;;;;9.73;5.23;;;;;;;;;;5120075;27;20454;-68
2023/11/15 13:52:22;;;;;;;6.20;4.47;;;;;;;;;;5117516;27;20454;-67
2023/11/15 13:54:48;;;;;;;7.00;4.30;;;;;;;;;;5119116;27;20442;-68
2023/11/15 13:57:17;;;;;;;7.90;4.13;;;;;;;;;;5113351;27;20482;-68
2023/11/15 13:59:43;;;;;;;11.30;4.87;;;;;;;;;;5105325;28;20451;-69
2023/11/15 14:02:10;;;;;;;10.77;4.63;;;;;;;;;;5127368;27;20909;-69
2023/11/15 14:04:37;;;;;;;13.60;6.10;;;;;;;;;;5117976;27;20888;-68
2023/11/15 14:07:04;;;;;;;9.90;4.50;;;;;;;;;;5113176;28;20451;-68
2023/11/15 14:09:33;;;;;;;9.17;4.20;;;;;;;;;;5095355;28;20443;-76
2023/11/15 14:12:00;;;;;;;9.13;4.87;;;;;;;;;;5113606;27;20474;-69
2023/11/15 14:14:26;;;;;;;14.13;5.13;;;;;;;;;;5113305;28;23066;-72
2023/11/15 14:16:53;;;;;;;9.87;5.40;;;;;;;;;;5104041;28;20492;-72
2023/11/15 14:19:20;;;;;;;7.30;4.93;;;;;;;;;;5107807;28;20482;-70
2023/11/15 14:21:47;;;;;;;7.27;4.97;;;;;;;;;;5115894;27;20474;-71
2023/11/15 14:24:14;;;;;;;11.40;5.50;;;;;;;;;;5117360;28;20495;-72
2023/11/15 14:26:42;;;;;;;11.37;5.70;;;;;;;;;;5116100;27;20463;-72
2023/11/15 14:29:08;;;;;;;11.67;4.47;;;;;;;;;;5108347;28;21265;-69
2023/11/15 14:31:38;;;;;;;8.30;4.80;;;;;;;;;;5108228;28;20510;-73
2023/11/15 14:34:07;;;;;;;5.60;3.60;;;;;;;;;;5099350;28;20949;-73
2023/11/15 14:36:35;;;;;;;8.33;4.00;;;;;;;;;;5112358;27;20459;-73
2023/11/15 14:39:02;;;;;;;7.63;4.00;;;;;;;;;;5111342;27;21069;-67
2023/11/15 14:41:30;;;;;;;12.20;3.97;;;;;;;;;;5116165;28;20867;-69
2023/11/15 14:43:59;;;;;;;7.70;3.90;;;;;;;;;;5110951;28;21249;-69